createdAt,value
2023-02-17T00:01:22.703Z,5.80
2023-02-17T00:03:51.101Z,5.80
2023-02-17T00:06:20.269Z,5.80
2023-02-17T00:08:47.689Z,5.80
2023-02-17T00:11:15.292Z,5.80
2023-02-17T00:13:42.739Z,5.80
2023-02-17T00:16:11.867Z,5.80
2023-02-17T00:18:38.882Z,5.80
2023-02-17T00:21:15.415Z,5.90
2023-02-17T00:23:42.676Z,5.80
2023-02-17T00:26:09.825Z,5.80
2023-02-17T00:28:38.107Z,5.80
2023-02-17T00:31:16.725Z,5.80
2023-02-17T00:33:43.918Z,5.90
2023-02-17T00:36:17.984Z,5.80
2023-02-17T00:38:46.685Z,5.80
2023-02-17T00:41:13.715Z,5.80
2023-02-17T00:43:40.710Z,5.80
2023-02-17T00:46:08.008Z,5.80
2023-02-17T00:48:35.241Z,5.80
2023-02-17T00:51:02.272Z,5.80
2023-02-17T00:53:29.579Z,5.80
2023-02-17T00:55:56.637Z,5.80
2023-02-17T00:58:24.119Z,5.80
2023-02-17T01:00:51.123Z,5.70
2023-02-17T01:03:19.406Z,5.80
2023-02-17T01:05:48.574Z,5.80
2023-02-17T01:08:17.075Z,5.70
2023-02-17T01:10:45.878Z,5.70
2023-02-17T01:13:14.422Z,5.80
2023-02-17T01:15:44.298Z,5.80
2023-02-17T01:18:11.296Z,5.80
2023-02-17T01:20:40.296Z,5.80
2023-02-17T01:23:08.716Z,5.80
2023-02-17T01:25:39.813Z,5.80
2023-02-17T01:28:07.894Z,5.80
2023-02-17T01:30:35.317Z,5.80
2023-02-17T01:33:02.358Z,5.80
2023-02-17T01:35:29.286Z,5.80
2023-02-17T01:37:56.203Z,5.90
2023-02-17T01:40:23.208Z,5.80
2023-02-17T01:42:50.247Z,5.80
2023-02-17T01:45:40.554Z,5.80
2023-02-17T01:48:16.214Z,5.80
2023-02-17T01:50:51.118Z,5.90
2023-02-17T01:53:22.945Z,5.80
2023-02-17T01:55:51.020Z,5.80
2023-02-17T01:58:21.028Z,5.80
2023-02-17T02:00:50.698Z,5.80
2023-02-17T02:03:17.731Z,5.80
2023-02-17T02:05:44.807Z,5.80
2023-02-17T02:08:13.031Z,5.80
2023-02-17T02:10:40.453Z,5.80
2023-02-17T02:13:08.377Z,5.80
2023-02-17T02:15:42.829Z,5.80
2023-02-17T02:18:40.687Z,5.80
2023-02-17T02:21:40.501Z,5.80
2023-02-17T02:24:31.803Z,5.80
2023-02-17T02:27:38.521Z,5.80
2023-02-17T02:30:25.277Z,5.80
2023-02-17T02:33:31.977Z,5.80
2023-02-17T02:36:05.277Z,5.80
2023-02-17T02:39:12.201Z,5.80
2023-02-17T02:41:48.035Z,5.80
2023-02-17T02:44:18.800Z,5.80
2023-02-17T02:46:45.925Z,5.80
2023-02-17T02:49:13.012Z,5.80
2023-02-17T02:51:57.004Z,5.80
2023-02-17T02:55:03.680Z,5.80
2023-02-17T02:57:50.333Z,5.80
2023-02-17T03:00:41.574Z,5.80
2023-02-17T03:03:33.123Z,5.80
2023-02-17T03:06:24.214Z,5.90
2023-02-17T03:09:14.848Z,5.90
2023-02-17T03:11:42.861Z,5.80
2023-02-17T03:14:12.719Z,5.80
2023-02-17T03:16:41.248Z,5.80
2023-02-17T03:19:09.423Z,5.80
2023-02-17T03:21:41.645Z,5.80
2023-02-17T03:24:09.502Z,5.70
2023-02-17T03:26:36.757Z,5.70
2023-02-17T03:29:03.721Z,5.70
2023-02-17T03:31:31.084Z,5.70
2023-02-17T03:33:58.658Z,5.80
2023-02-17T03:36:25.697Z,5.70
2023-02-17T03:38:52.662Z,5.80
2023-02-17T03:41:19.650Z,5.80
2023-02-17T03:43:46.599Z,5.90
2023-02-17T03:46:15.311Z,5.90
2023-02-17T03:48:42.504Z,5.80
2023-02-17T03:51:14.583Z,5.80
2023-02-17T03:53:42.621Z,5.90
2023-02-17T03:56:10.184Z,5.90
2023-02-17T03:58:37.531Z,5.90
2023-02-17T04:01:06.187Z,5.90
2023-02-17T04:03:33.341Z,5.90
2023-02-17T04:06:00.603Z,5.90
2023-02-17T04:08:28.014Z,5.90
2023-02-17T04:10:56.821Z,5.90
2023-02-17T04:13:24.398Z,5.80
2023-02-17T04:15:51.755Z,5.80
2023-02-17T04:18:19.474Z,5.80
2023-02-17T04:20:48.718Z,5.80
2023-02-17T04:23:16.561Z,5.80
2023-02-17T04:25:43.733Z,5.90
2023-02-17T04:28:11.161Z,5.80
2023-02-17T04:30:38.171Z,5.80
2023-02-17T04:33:05.789Z,5.80
2023-02-17T04:35:33.020Z,5.70
2023-02-17T04:38:00.095Z,5.80
2023-02-17T04:40:27.213Z,5.80
2023-02-17T04:42:54.140Z,5.80
2023-02-17T04:45:21.222Z,5.90
2023-02-17T04:47:48.206Z,5.80
2023-02-17T04:50:15.168Z,5.80
2023-02-17T04:52:42.174Z,5.80
2023-02-17T04:55:09.580Z,5.70
2023-02-17T04:57:36.629Z,5.70
2023-02-17T05:00:05.872Z,5.70
2023-02-17T05:02:32.920Z,5.70
2023-02-17T05:04:59.959Z,5.70
2023-02-17T05:07:27.128Z,5.70
2023-02-17T05:09:54.378Z,5.60
2023-02-17T05:12:21.340Z,5.70
2023-02-17T05:14:48.425Z,5.70
2023-02-17T05:17:15.345Z,5.70
2023-02-17T05:19:42.328Z,5.70
2023-02-17T05:22:09.340Z,5.70
2023-02-17T05:24:38.584Z,5.70
2023-02-17T05:27:05.946Z,5.80
2023-02-17T05:29:33.009Z,5.70
2023-02-17T05:32:00.029Z,5.80
2023-02-17T05:34:27.188Z,5.80
2023-02-17T05:36:54.236Z,5.80
2023-02-17T05:39:21.234Z,5.80
2023-02-17T05:41:48.267Z,5.80
2023-02-17T05:44:15.256Z,5.80
2023-02-17T05:46:42.192Z,5.90
2023-02-17T05:49:09.316Z,5.90
2023-02-17T05:51:36.956Z,5.90
2023-02-17T05:54:04.153Z,5.80
2023-02-17T05:56:31.352Z,5.90
2023-02-17T05:58:58.449Z,5.80
2023-02-17T06:01:25.488Z,5.90
2023-02-17T06:03:52.497Z,5.90
2023-02-17T06:06:19.445Z,5.90
2023-02-17T06:08:46.425Z,5.90
2023-02-17T06:11:13.453Z,5.90
2023-02-17T06:13:40.498Z,5.90
2023-02-17T06:16:07.843Z,5.90
2023-02-17T06:18:34.965Z,6.00
2023-02-17T06:21:01.924Z,5.90
2023-02-17T06:23:29.053Z,6.00
2023-02-17T06:25:56.062Z,6.00
2023-02-17T06:28:23.021Z,5.90
2023-02-17T06:30:49.963Z,5.90
2023-02-17T06:33:16.881Z,5.90
2023-02-17T06:35:48.669Z,5.90
2023-02-17T06:38:15.846Z,5.90
2023-02-17T06:40:42.793Z,5.90
2023-02-17T06:43:09.792Z,5.90
2023-02-17T06:45:36.758Z,5.90
2023-02-17T06:48:03.894Z,5.90
2023-02-17T06:50:30.856Z,5.90
2023-02-17T06:52:57.800Z,5.80
2023-02-17T06:55:24.719Z,5.80
2023-02-17T06:57:51.688Z,5.80
2023-02-17T07:00:19.495Z,5.80
2023-02-17T07:02:46.611Z,5.80
2023-02-17T07:05:13.700Z,5.80
2023-02-17T07:07:40.635Z,5.80
2023-02-17T07:10:08.503Z,5.80
2023-02-17T07:12:35.500Z,5.90
2023-02-17T07:15:02.595Z,5.90
2023-02-17T07:17:29.591Z,5.90
2023-02-17T07:19:56.618Z,6.00
2023-02-17T07:22:25.624Z,5.90
2023-02-17T07:24:53.080Z,5.90
2023-02-17T07:27:20.013Z,6.00
2023-02-17T07:29:47.042Z,6.00
2023-02-17T07:32:14.114Z,6.00
2023-02-17T07:34:41.048Z,6.00
2023-02-17T07:37:09.050Z,5.90
2023-02-17T07:39:36.342Z,6.00
2023-02-17T07:42:05.197Z,6.10
2023-02-17T07:44:32.600Z,6.10
2023-02-17T07:46:59.592Z,6.20
2023-02-17T07:49:26.699Z,6.20
2023-02-17T07:51:53.670Z,6.30
2023-02-17T07:54:20.610Z,6.30
2023-02-17T07:56:47.591Z,6.30
2023-02-17T07:59:15.051Z,6.30
2023-02-17T08:01:42.033Z,6.30
2023-02-17T08:04:09.278Z,6.20
2023-02-17T08:06:39.130Z,6.20
2023-02-17T08:09:25.993Z,6.20
2023-02-17T08:12:12.876Z,6.20
2023-02-17T08:14:39.830Z,6.20
2023-02-17T08:17:07.695Z,6.20
2023-02-17T08:19:47.371Z,6.30
2023-02-17T08:22:16.359Z,6.20
2023-02-17T08:24:43.441Z,6.30
2023-02-17T08:27:10.497Z,6.30
2023-02-17T08:29:37.530Z,6.30
2023-02-17T08:32:04.766Z,6.30
2023-02-17T08:34:34.898Z,6.30
2023-02-17T08:37:03.682Z,6.30
2023-02-17T08:39:31.248Z,6.30
2023-02-17T08:41:58.256Z,6.40
2023-02-17T08:44:25.612Z,6.40
2023-02-17T08:46:53.318Z,6.40
2023-02-17T08:49:24.612Z,6.30
2023-02-17T08:51:52.265Z,6.20
2023-02-17T08:54:19.252Z,6.20
2023-02-17T08:56:46.269Z,6.20
2023-02-17T08:59:13.631Z,6.20
2023-02-17T09:01:41.161Z,6.20
2023-02-17T09:04:10.062Z,6.20
2023-02-17T09:06:41.103Z,6.20
2023-02-17T09:09:10.897Z,6.20
2023-02-17T09:11:38.383Z,6.30
2023-02-17T09:14:06.455Z,6.20
2023-02-17T09:16:33.701Z,6.20
2023-02-17T09:19:00.745Z,6.20
2023-02-17T09:21:27.722Z,6.20
2023-02-17T09:23:54.778Z,6.30
2023-02-17T09:29:07.336Z,6.20
2023-02-17T09:31:35.515Z,6.30
2023-02-17T09:34:03.171Z,6.20
2023-02-17T09:36:33.961Z,6.20
2023-02-17T09:39:01.895Z,6.20
2023-02-17T09:41:47.964Z,6.20
2023-02-17T09:44:26.124Z,6.20
2023-02-17T09:47:16.244Z,6.20
2023-02-17T09:49:48.415Z,6.20
2023-02-17T09:52:27.792Z,6.20
2023-02-17T09:55:18.597Z,6.20
2023-02-17T09:58:09.024Z,6.20
2023-02-17T10:00:43.024Z,6.20
2023-02-17T10:03:49.803Z,6.20
2023-02-17T10:06:39.734Z,6.30
2023-02-17T10:09:28.853Z,6.30
2023-02-17T10:12:18.002Z,6.30
2023-02-17T10:15:08.261Z,6.30
2023-02-17T10:17:41.490Z,6.30
2023-02-17T10:20:37.105Z,6.30
2023-02-17T10:23:13.468Z,6.30
2023-02-17T10:26:08.375Z,6.30
2023-02-17T10:29:02.433Z,6.40
2023-02-17T10:31:48.675Z,6.40
2023-02-17T10:34:36.388Z,6.30
2023-02-17T10:37:08.457Z,6.30
2023-02-17T10:40:05.401Z,6.30
2023-02-17T10:42:36.592Z,6.30
2023-02-17T10:45:12.188Z,6.30
2023-02-17T10:47:40.288Z,6.30
2023-02-17T10:50:17.866Z,6.40
2023-02-17T10:52:44.877Z,6.40
2023-02-17T10:55:41.431Z,6.50
2023-02-17T10:58:31.383Z,6.50
2023-02-17T11:00:58.482Z,6.40
2023-02-17T11:03:29.778Z,6.50
2023-02-17T11:06:00.316Z,6.40
2023-02-17T11:09:08.387Z,6.40
2023-02-17T11:11:36.951Z,6.40
2023-02-17T11:14:27.687Z,6.30
2023-02-17T11:17:00.704Z,6.40
2023-02-17T11:20:06.034Z,6.40
2023-02-17T11:22:40.360Z,6.30
2023-02-17T11:25:28.663Z,6.20
2023-02-17T11:27:58.533Z,6.30
2023-02-17T11:30:27.678Z,6.30
2023-02-17T11:32:55.414Z,7.40
2023-02-17T11:36:02.116Z,6.30
2023-02-17T11:38:45.873Z,6.30
2023-02-17T11:41:12.989Z,6.20
2023-02-17T11:43:50.529Z,6.10
2023-02-17T11:46:46.707Z,6.10
2023-02-17T11:49:53.395Z,6.10
2023-02-17T11:53:00.102Z,6.10
2023-02-17T11:55:46.780Z,6.10
2023-02-17T11:58:21.643Z,6.10
2023-02-17T12:01:19.492Z,6.10
2023-02-17T12:04:26.257Z,6.10
2023-02-17T12:07:32.972Z,6.00
2023-02-17T12:10:19.652Z,6.10
2023-02-17T12:13:06.347Z,6.10
2023-02-17T12:15:56.344Z,6.10
2023-02-17T12:18:56.161Z,6.10
2023-02-17T12:21:59.455Z,6.10
2023-02-17T12:24:53.607Z,6.10
2023-02-17T12:27:47.086Z,6.10
2023-02-17T12:30:39.523Z,6.10
2023-02-17T12:33:37.280Z,6.20
2023-02-17T12:36:25.648Z,6.10
2023-02-17T12:38:59.131Z,6.10
2023-02-17T12:41:32.155Z,6.20
2023-02-17T12:44:21.583Z,6.20
2023-02-17T12:46:57.922Z,6.20
2023-02-17T12:49:34.695Z,6.20
2023-02-17T12:52:24.025Z,6.20
2023-02-17T12:54:57.320Z,6.20
2023-02-17T12:58:04.281Z,6.20
2023-02-17T13:00:39.396Z,6.20
2023-02-17T13:03:06.903Z,6.30
2023-02-17T13:06:04.291Z,6.30
2023-02-17T13:08:40.257Z,6.20
2023-02-17T13:11:13.327Z,6.20
2023-02-17T13:13:40.707Z,6.20
2023-02-17T13:16:28.591Z,6.30
2023-02-17T13:18:55.576Z,6.30
2023-02-17T13:21:33.209Z,6.30
2023-02-17T13:24:36.620Z,6.30
2023-02-17T13:27:20.010Z,6.30
2023-02-17T13:29:47.017Z,6.30
2023-02-17T13:32:14.247Z,6.40
2023-02-17T13:34:44.766Z,6.40
2023-02-17T13:37:28.306Z,6.40
2023-02-17T13:39:55.435Z,6.40
2023-02-17T13:42:42.108Z,6.40
2023-02-17T13:45:34.228Z,6.40
2023-02-17T13:48:13.703Z,6.50
2023-02-17T13:51:05.274Z,6.40
2023-02-17T13:53:38.183Z,6.40
2023-02-17T13:56:09.011Z,6.50
2023-02-17T13:58:40.272Z,6.50
2023-02-17T14:01:14.256Z,6.40
2023-02-17T14:04:01.199Z,6.40
2023-02-17T14:06:49.906Z,6.50
2023-02-17T14:09:27.159Z,6.50
2023-02-17T14:11:56.006Z,6.40
2023-02-17T14:14:28.765Z,6.40
2023-02-17T14:16:59.800Z,6.40
2023-02-17T14:19:26.837Z,6.50
2023-02-17T14:22:24.166Z,6.50
2023-02-17T14:25:04.975Z,6.50
2023-02-17T14:27:50.246Z,6.40
2023-02-17T14:30:38.734Z,6.40
2023-02-17T14:33:26.130Z,6.40
2023-02-17T14:36:12.984Z,6.50
2023-02-17T14:38:42.449Z,6.50
2023-02-17T14:41:10.348Z,6.50
2023-02-17T14:43:37.594Z,6.50
2023-02-17T14:46:05.375Z,6.50
2023-02-17T14:48:32.587Z,6.60
2023-02-17T14:50:59.535Z,6.60
2023-02-17T14:53:29.674Z,6.60
2023-02-17T14:56:20.096Z,6.60
2023-02-17T14:58:47.228Z,6.60
2023-02-17T15:01:17.573Z,6.60
2023-02-17T15:03:44.693Z,6.70
2023-02-17T15:06:23.067Z,6.70
2023-02-17T15:08:50.510Z,6.70
2023-02-17T15:11:37.624Z,6.70
2023-02-17T15:14:05.431Z,6.70
2023-02-17T15:16:32.763Z,6.70
2023-02-17T15:18:59.789Z,6.70
2023-02-17T15:21:31.469Z,6.80
2023-02-17T15:24:00.379Z,6.70
2023-02-17T15:26:30.442Z,6.80
2023-02-17T15:28:58.104Z,6.80
2023-02-17T15:31:26.961Z,6.80
2023-02-17T15:33:59.395Z,6.80
2023-02-17T15:36:27.675Z,6.80
2023-02-17T15:38:55.312Z,6.80
2023-02-17T15:41:26.986Z,6.90
2023-02-17T15:43:56.324Z,6.90
2023-02-17T15:46:29.273Z,6.90
2023-02-17T15:48:56.386Z,6.90
2023-02-17T15:55:18.922Z,7.00
2023-02-17T15:57:48.748Z,7.00
2023-02-17T16:00:36.088Z,7.00
2023-02-17T16:03:03.528Z,7.10
2023-02-17T16:05:31.470Z,7.10
2023-02-17T16:07:58.392Z,7.10
2023-02-17T16:10:27.645Z,7.10
2023-02-17T16:12:57.647Z,7.20
2023-02-17T16:15:26.082Z,7.20
2023-02-17T16:17:53.220Z,7.20
2023-02-17T16:20:40.028Z,7.20
2023-02-17T16:23:06.973Z,7.20
2023-02-17T16:25:36.340Z,7.30
2023-02-17T16:28:03.452Z,7.20
2023-02-17T16:30:50.575Z,7.20
2023-02-17T16:33:18.226Z,7.30
2023-02-17T16:35:45.606Z,7.40
2023-02-17T16:38:34.547Z,7.40
2023-02-17T16:41:01.483Z,7.40
2023-02-17T16:43:30.575Z,7.40
2023-02-17T16:46:01.597Z,7.40
2023-02-17T16:48:31.744Z,7.40
2023-02-17T16:50:58.737Z,7.40
2023-02-17T16:53:25.838Z,7.40
2023-02-17T16:55:55.246Z,7.50
2023-02-17T16:58:25.011Z,7.50
2023-02-17T17:00:54.388Z,7.50
2023-02-17T17:03:23.265Z,7.60
2023-02-17T17:05:51.918Z,7.60
2023-02-17T17:08:21.280Z,7.60
2023-02-17T17:10:49.525Z,7.60
2023-02-17T17:13:16.694Z,7.60
2023-02-17T17:15:45.228Z,7.70
2023-02-17T17:18:20.052Z,7.70
2023-02-17T17:20:47.425Z,7.70
2023-02-17T17:23:15.388Z,7.70
2023-02-17T17:25:46.851Z,7.70
2023-02-17T17:28:16.677Z,7.70
2023-02-17T17:30:43.915Z,7.80
2023-02-17T17:33:10.909Z,7.80
2023-02-17T17:35:38.222Z,7.90
2023-02-17T17:38:05.581Z,8.10
2023-02-17T17:40:48.698Z,8.10
2023-02-17T17:43:20.213Z,8.10
2023-02-17T17:45:48.715Z,8.10
2023-02-17T17:48:16.864Z,8.10
2023-02-17T17:50:44.140Z,8.10
2023-02-17T17:53:11.240Z,8.20
2023-02-17T17:55:38.229Z,8.10
2023-02-17T17:58:05.336Z,8.10
2023-02-17T18:00:32.457Z,8.00
2023-02-17T18:02:59.421Z,8.00
2023-02-17T18:05:26.458Z,7.90
2023-02-17T18:07:53.628Z,7.90
2023-02-17T18:10:21.053Z,7.90
2023-02-17T18:12:48.280Z,7.80
2023-02-17T18:15:16.382Z,7.80
2023-02-17T18:17:43.679Z,7.80
2023-02-17T18:20:12.102Z,7.80
2023-02-17T18:22:39.864Z,7.80
2023-02-17T18:25:07.102Z,7.70
2023-02-17T18:27:43.959Z,7.70
2023-02-17T18:30:15.775Z,7.60
2023-02-17T18:32:44.217Z,7.60
2023-02-17T18:35:11.953Z,7.50
2023-02-17T18:37:41.246Z,7.50
2023-02-17T18:40:12.624Z,7.40
2023-02-17T18:42:41.154Z,7.40
2023-02-17T18:45:09.092Z,7.30
2023-02-17T18:47:36.134Z,7.30
2023-02-17T18:50:03.764Z,7.30
2023-02-17T18:52:30.736Z,7.30
2023-02-17T18:54:57.703Z,7.40
2023-02-17T18:57:24.677Z,7.20
2023-02-17T18:59:51.702Z,7.30
2023-02-17T19:02:18.748Z,7.30
2023-02-17T19:04:45.758Z,7.20
2023-02-17T19:07:12.932Z,7.10
2023-02-17T19:09:42.820Z,7.10
2023-02-17T19:12:13.495Z,7.00
2023-02-17T19:14:41.812Z,7.10
2023-02-17T19:17:10.157Z,7.10
2023-02-17T19:19:38.523Z,7.00
2023-02-17T19:22:08.352Z,6.90
2023-02-17T19:24:38.049Z,6.90
2023-02-17T19:27:05.735Z,6.90
2023-02-17T19:29:32.876Z,6.90
2023-02-17T19:32:01.495Z,6.90
2023-02-17T19:34:28.976Z,6.80
2023-02-17T19:36:56.284Z,6.80
2023-02-17T19:39:23.331Z,6.80
2023-02-17T19:41:50.277Z,6.80
2023-02-17T19:44:17.567Z,6.80
2023-02-17T19:46:44.541Z,6.80
2023-02-17T19:49:11.553Z,6.70
2023-02-17T19:51:38.622Z,6.70
2023-02-17T19:54:05.598Z,6.70
2023-02-17T19:56:33.991Z,6.60
2023-02-17T19:59:01.019Z,6.60
2023-02-17T20:01:31.491Z,6.60
2023-02-17T20:04:01.681Z,6.60
2023-02-17T20:06:32.813Z,6.60
2023-02-17T20:09:02.059Z,6.60
2023-02-17T20:11:29.566Z,6.60
2023-02-17T20:13:58.459Z,6.50
2023-02-17T20:16:26.432Z,6.60
2023-02-17T20:18:55.645Z,6.50
2023-02-17T20:21:25.872Z,6.50
2023-02-17T20:23:52.931Z,6.50
2023-02-17T20:26:23.824Z,6.50
2023-02-17T20:28:51.227Z,6.50
2023-02-17T20:31:18.944Z,6.40
2023-02-17T20:33:46.456Z,6.40
2023-02-17T20:36:13.475Z,6.40
2023-02-17T20:38:40.970Z,6.40
2023-02-17T20:41:09.768Z,6.30
2023-02-17T20:43:38.318Z,6.30
2023-02-17T20:46:05.705Z,6.30
2023-02-17T20:48:33.087Z,6.40
2023-02-17T20:51:00.112Z,6.40
2023-02-17T20:53:27.616Z,6.30
2023-02-17T20:55:54.650Z,6.30
2023-02-17T20:58:21.741Z,6.30
2023-02-17T21:00:49.759Z,6.30
2023-02-17T21:03:16.826Z,6.30
2023-02-17T21:05:43.836Z,6.30
2023-02-17T21:08:10.867Z,6.30
2023-02-17T21:10:40.124Z,6.30
2023-02-17T21:13:07.180Z,6.30
2023-02-17T21:15:34.275Z,6.30
2023-02-17T21:18:01.255Z,6.30
2023-02-17T21:20:28.250Z,6.30
2023-02-17T21:22:55.267Z,6.20
2023-02-17T21:25:22.306Z,6.20
2023-02-17T21:27:49.372Z,6.20
2023-02-17T21:30:16.513Z,6.20
2023-02-17T21:32:43.693Z,6.20
2023-02-17T21:35:11.386Z,6.20
2023-02-17T21:37:40.329Z,6.20
2023-02-17T21:40:08.850Z,6.10
2023-02-17T21:42:57.676Z,6.20
2023-02-17T21:45:25.217Z,6.10
2023-02-17T21:47:52.442Z,6.10
2023-02-17T21:50:19.818Z,6.10
2023-02-17T21:52:46.828Z,6.10
2023-02-17T21:55:14.008Z,6.00
2023-02-17T21:57:41.002Z,6.00
2023-02-17T22:00:08.993Z,6.00
